If you wish to contribute or participate in the discussions about articles you are invited to join SKYbrary as a registered user

 Actions

Barter Island LRRS Airport

From SKYbrary Wiki

PABA
Airport
ICAO: PABA – IATA: BTI
Summary
Name Barter Island LRRS Airport
Region North America
Territory Alaska US.gif
Location Barter Island, Alaska
Serving Barter Island
Elevation 0.61 m
2 ft
2 ft0.61 m
Type medium airport
Coordinates 70° 8' 2.36" N, 143° 34' 54.72" W
Runways
Designator Length Width Surface ROPS
7/25 1469 m4,819.554 ft
30 m98.425 ft
GRAVEL-P yes/yes


METAR
Observation PABA 222152Z 07026KT 1 3/4SM BR CLR M16/M18 A3020 RMK AO2 PK WND 08030/2148 VIS 1 1/4V2 1/2 SLP212 T11561178 FZRANO
Station Barter Island, Barter Island LRRS Airport
Date/Time 22 March 2019 21:52:00
Wind direction 70°
Wind speed 26 kts
Lowest cloud amount n/a
Temperature
Dew point
Humidity 83%
QNH hPa
Weather condition mist

Maps

Terrain

Loading map...

Airport Layout

Loading map...


Accidents & Serious Incidents at or in vicinity of PABA

None on SKYbrary